Time;durP1;ratioP1;P1;durP2;ratioP2;P2;SDS_P1;SDS_P2;PMS_P1;PMS_P2;Temp;Humidity;BMP_temperature;BMP_pressure;BME280_temperature;BME280_humidity;BME280_pressure;Samples;Min_cycle;Max_cycle;Signal;HPM_P1;HPM_P2
2021/12/24 00:01:11;;;;;;;60.20;22.55;;;5.40;99.90;;;;;;5012222;28;20045;-76
2021/12/24 00:03:37;;;;;;;67.97;23.10;;;5.50;99.90;;;;;;5052411;28;20037;-77
2021/12/24 00:06:06;;;;;;;56.85;22.05;;;5.50;99.90;;;;;;5025220;28;20033;-76
2021/12/24 00:08:33;;;;;;;62.10;22.38;;;5.50;99.90;;;;;;5014814;28;20048;-76
2021/12/24 00:11:00;;;;;;;64.85;22.48;;;5.50;99.90;;;;;;5002815;28;20042;-76
2021/12/24 00:13:36;;;;;;;56.42;22.67;;;5.50;99.90;;;;;;5039576;28;20129;-77
2021/12/24 00:19:20;;;;;;;68.43;24.25;;;5.50;99.90;;;;;;5060635;28;20037;-76
2021/12/24 00:37:28;;;;;;;71.63;22.95;;;5.60;99.90;;;;;;5050851;28;20057;-77
2021/12/24 00:40:10;;;;;;;60.63;22.58;;;5.70;99.90;;;;;;5019725;28;20057;-76
2021/12/24 00:42:37;;;;;;;60.88;20.30;;;5.60;99.90;;;;;;5021931;28;20431;-76
2021/12/24 00:45:04;;;;;;;55.13;20.75;;;5.60;99.90;;;;;;5029103;28;20037;-77
2021/12/24 00:47:30;;;;;;;69.95;21.48;;;5.70;99.90;;;;;;5050162;28;20263;-76
2021/12/24 00:49:56;;;;;;;56.08;20.25;;;5.60;99.90;;;;;;5029550;28;20112;-77
2021/12/24 00:55:03;;;;;;;48.90;18.92;;;5.60;99.90;;;;;;5027876;28;20064;-76
2021/12/24 00:57:33;;;;;;;;;;;5.70;99.90;;;;;;5031084;28;20049;-77
2021/12/24 00:59:58;;;;;;;50.08;18.52;;;5.70;99.90;;;;;;5020996;28;20341;-77
2021/12/24 01:02:24;;;;;;;47.05;17.23;;;5.70;99.90;;;;;;5029188;28;20076;-77
2021/12/24 01:04:50;;;;;;;54.03;18.42;;;5.70;99.90;;;;;;5041714;28;20127;-77
2021/12/24 01:07:16;;;;;;;40.65;17.20;;;5.70;99.90;;;;;;5020426;28;20134;-77
2021/12/24 01:09:42;;;;;;;43.22;16.88;;;5.80;99.90;;;;;;5034288;28;20105;-78
2021/12/24 01:12:08;;;;;;;43.83;16.95;;;5.80;99.90;;;;;;4993079;28;20046;-76
2021/12/24 01:14:34;;;;;;;40.80;15.90;;;5.80;99.90;;;;;;4999246;28;21700;-76
2021/12/24 01:19:46;;;;;;;48.88;16.58;;;5.90;99.90;;;;;;5026108;28;20041;-77
2021/12/24 01:25:00;;;;;;;44.15;15.82;;;5.90;99.90;;;;;;5048859;28;20144;-76
2021/12/24 01:30:08;;;;;;;42.20;14.48;;;6.00;99.90;;;;;;5054643;28;20146;-76
2021/12/24 01:38:13;;;;;;;32.83;13.48;;;6.10;99.90;;;;;;5020481;28;20159;-77
2021/12/24 01:43:16;;;;;;;40.33;13.90;;;6.10;99.90;;;;;;5038533;28;20056;-77
2021/12/24 01:45:47;;;;;;;33.95;13.02;;;6.20;99.90;;;;;;5023530;28;20157;-78
2021/12/24 01:48:12;;;;;;;34.63;13.55;;;6.10;99.90;;;;;;5028931;28;20045;-79
2021/12/24 01:50:42;;;;;;;38.58;12.32;;;6.20;99.90;;;;;;5008628;28;20155;-77
2021/12/24 01:53:08;;;;;;;28.50;11.98;;;6.20;99.90;;;;;;5018810;28;20052;-78
2021/12/24 01:55:35;;;;;;;33.05;12.10;;;6.20;99.90;;;;;;5036040;28;20087;-77
2021/12/24 01:58:00;;;;;;;27.95;10.88;;;6.20;99.90;;;;;;5027264;28;20042;-76
2021/12/24 02:00:32;;;;;;;28.75;11.02;;;6.30;99.90;;;;;;5010483;28;20068;-77
2021/12/24 02:02:58;;;;;;;25.17;10.93;;;6.30;99.90;;;;;;5028983;28;20055;-76
2021/12/24 02:05:25;;;;;;;26.08;10.40;;;6.30;99.90;;;;;;5018243;28;20411;-76
2021/12/24 02:07:50;;;;;;;22.40;10.05;;;6.30;99.90;;;;;;5026049;28;20063;-76
2021/12/24 02:10:18;;;;;;;22.95;9.90;;;6.30;99.90;;;;;;5012073;28;20049;-77
2021/12/24 02:12:43;;;;;;;21.30;9.45;;;6.30;99.90;;;;;;5023058;28;20056;-77
2021/12/24 02:15:19;;;;;;;22.58;10.13;;;6.40;99.90;;;;;;5048327;28;20033;-76
2021/12/24 02:28:38;;;;;;;33.42;11.48;;;6.40;99.90;;;;;;5021091;28;20465;-76
2021/12/24 02:31:06;;;;;;;31.52;11.85;;;6.40;99.90;;;;;;5052027;28;20104;-76
2021/12/24 02:33:32;;;;;;;30.95;11.50;;;6.40;99.90;;;;;;5025520;28;20060;-77
2021/12/24 02:35:58;;;;;;;34.90;11.80;;;6.40;99.90;;;;;;5015025;28;20469;-75
2021/12/24 02:38:24;;;;;;;37.05;12.05;;;6.40;99.90;;;;;;5024396;28;20049;-76
2021/12/24 02:40:50;;;;;;;32.90;11.60;;;6.40;99.90;;;;;;5037685;28;20128;-75
2021/12/24 02:43:19;;;;;;;32.95;11.45;;;6.40;99.90;;;;;;5023508;28;20125;-76
2021/12/24 02:45:47;;;;;;;27.98;11.27;;;6.40;99.90;;;;;;5006153;28;20041;-77
2021/12/24 02:56:17;;;;;;;34.47;11.20;;;6.50;99.90;;;;;;5063687;28;20038;-76
2021/12/24 02:58:46;;;;;;;31.55;11.45;;;6.50;99.90;;;;;;5004571;28;20128;-77
2021/12/24 03:01:20;;;;;;;31.92;11.20;;;6.60;99.90;;;;;;5032716;28;20084;-76
2021/12/24 03:03:48;;;;;;;36.67;12.30;;;6.60;99.90;;;;;;5023840;28;20074;-78
2021/12/24 03:06:35;;;;;;;34.70;11.43;;;6.60;99.90;;;;;;5056136;28;20049;-76
2021/12/24 03:09:05;;;;;;;30.73;12.00;;;6.70;99.90;;;;;;5020169;28;20037;-77
2021/12/24 03:11:31;;;;;;;38.15;13.15;;;6.70;99.90;;;;;;5022972;28;20033;-75
2021/12/24 03:13:56;;;;;;;34.55;12.40;;;6.70;99.90;;;;;;5017665;28;20465;-77
2021/12/24 03:16:22;;;;;;;41.95;13.60;;;6.70;99.90;;;;;;5055953;28;20480;-76
2021/12/24 03:18:49;;;;;;;43.22;14.05;;;6.80;99.90;;;;;;5054183;28;20109;-75
2021/12/24 03:21:25;;;;;;;52.50;15.00;;;6.80;99.90;;;;;;5019246;28;20128;-77
2021/12/24 03:26:39;;;;;;;46.25;14.38;;;6.90;99.90;;;;;;5057552;28;20048;-75
2021/12/24 03:29:10;;;;;;;58.97;15.18;;;6.90;99.90;;;;;;5006346;28;20073;-76
2021/12/24 03:31:37;;;;;;;70.13;16.77;;;6.90;99.90;;;;;;5020975;28;20041;-77
2021/12/24 03:34:06;;;;;;;74.18;17.30;;;6.90;99.90;;;;;;5023927;28;20117;-77
2021/12/24 03:36:31;;;;;;;68.30;17.25;;;7.00;99.90;;;;;;5054882;28;20103;-76
2021/12/24 03:38:57;;;;;;;68.30;16.13;;;7.10;99.90;;;;;;5021525;28;20500;-75
2021/12/24 03:41:23;;;;;;;55.80;14.18;;;7.10;99.90;;;;;;5026870;28;20131;-76
2021/12/24 03:43:49;;;;;;;74.80;16.48;;;7.20;99.90;;;;;;5024867;28;20139;-75
2021/12/24 03:46:19;;;;;;;85.93;18.85;;;7.20;99.90;;;;;;5025206;28;20540;-77
2021/12/24 03:48:53;;;;;;;83.40;18.15;;;7.30;99.90;;;;;;5040080;28;20028;-77
2021/12/24 03:56:44;;;;;;;93.95;19.40;;;7.40;99.90;;;;;;5066621;28;20044;-76
2021/12/24 03:59:10;;;;;;;95.25;18.98;;;7.50;99.90;;;;;;5030231;28;20028;-78
2021/12/24 04:01:37;;;;;;;98.25;20.30;;;7.60;99.90;;;;;;5023096;28;20069;-76
2021/12/24 04:04:03;;;;;;;76.28;17.00;;;7.60;99.90;;;;;;5031931;28;20068;-77
2021/12/24 04:06:29;;;;;;;75.68;15.93;;;7.60;99.90;;;;;;5020041;28;20072;-76
2021/12/24 04:08:55;;;;;;;92.70;20.05;;;7.70;99.90;;;;;;5033656;28;20056;-76
2021/12/24 04:11:21;;;;;;;104.47;22.67;;;7.70;99.90;;;;;;5025690;28;20044;-76
2021/12/24 04:13:47;;;;;;;114.38;20.50;;;7.70;99.90;;;;;;5018841;28;20049;-76
2021/12/24 04:16:13;;;;;;;121.72;22.83;;;7.70;99.90;;;;;;5024227;28;20037;-77
2021/12/24 04:18:58;;;;;;;88.35;19.40;;;7.70;99.90;;;;;;5043535;28;20032;-77
2021/12/24 04:26:52;;;;;;;63.88;16.88;;;7.80;99.90;;;;;;5031983;28;20045;-77
2021/12/24 04:29:18;;;;;;;53.88;14.77;;;7.80;99.90;;;;;;5055766;28;20090;-75
2021/12/24 04:31:52;;;;;;;66.22;17.85;;;7.90;99.90;;;;;;5023366;28;20041;-77
2021/12/24 04:34:25;;;;;;;70.45;18.48;;;7.90;99.90;;;;;;5030031;28;20384;-77
2021/12/24 05:01:37;;;;;;;58.97;18.52;;;8.20;99.90;;;;;;5009495;28;20053;-75
2021/12/24 05:04:05;;;;;;;72.57;23.65;;;8.30;99.90;;;;;;5027012;28;20050;-76
2021/12/24 05:06:37;;;;;;;88.65;27.67;;;8.30;99.90;;;;;;5026697;28;20049;-77
2021/12/24 05:09:12;;;;;;;86.88;28.70;;;8.30;99.90;;;;;;5013960;28;20460;-78
2021/12/24 05:11:37;;;;;;;63.35;22.20;;;8.50;99.90;;;;;;4990474;28;20080;-77
2021/12/24 05:14:04;;;;;;;71.53;24.48;;;8.40;99.90;;;;;;5014432;28;20060;-76
2021/12/24 05:22:12;;;;;;;73.80;24.37;;;8.40;99.90;;;;;;5041240;28;20041;-76
2021/12/24 05:24:38;;;;;;;70.15;25.75;;;8.30;99.90;;;;;;5021370;28;20304;-76
2021/12/24 05:27:04;;;;;;;74.88;27.27;;;8.40;99.90;;;;;;5026296;28;20126;-76
2021/12/24 05:29:29;;;;;;;64.38;24.23;;;8.30;99.90;;;;;;5029633;28;20055;-75
2021/12/24 05:31:55;;;;;;;70.07;28.02;;;8.30;99.90;;;;;;5021714;28;20041;-77
2021/12/24 05:34:21;;;;;;;74.18;27.25;;;8.40;99.90;;;;;;5022542;28;20068;-78
2021/12/24 05:36:49;;;;;;;55.08;18.70;;;8.30;99.90;;;;;;4997560;28;20042;-77
2021/12/24 05:39:16;;;;;;;84.25;25.10;;;8.40;99.90;;;;;;5007355;28;20396;-76
2021/12/24 05:41:42;;;;;;;75.22;27.38;;;8.40;99.90;;;;;;5028652;28;20053;-77
2021/12/24 05:44:09;;;;;;;72.82;26.38;;;8.60;99.90;;;;;;5003941;28;20056;-77
2021/12/24 05:46:36;;;;;;;63.85;22.88;;;8.30;99.90;;;;;;5026336;28;20147;-77
2021/12/24 05:49:02;;;;;;;54.38;16.45;;;8.40;99.90;;;;;;5020294;28;20060;-76
2021/12/24 05:51:28;;;;;;;47.13;18.25;;;8.50;99.90;;;;;;5015454;28;20033;-78
2021/12/24 05:53:54;;;;;;;50.78;18.67;;;8.40;99.90;;;;;;5026292;28;20086;-77
2021/12/24 05:56:20;;;;;;;56.15;18.58;;;8.50;99.90;;;;;;5033214;28;20049;-77
2021/12/24 05:58:46;;;;;;;44.33;16.58;;;8.40;99.90;;;;;;5011348;28;20190;-76
2021/12/24 06:01:12;;;;;;;52.22;15.02;;;8.40;99.90;;;;;;5000193;28;20038;-75
2021/12/24 06:03:38;;;;;;;45.97;15.32;;;8.60;99.90;;;;;;5008520;28;20167;-77
2021/12/24 06:06:03;;;;;;;67.20;19.27;;;8.50;99.90;;;;;;5034863;28;20380;-77
2021/12/24 06:08:29;;;;;;;57.95;16.00;;;8.40;99.90;;;;;;5026815;28;20434;-76
2021/12/24 06:10:55;;;;;;;46.10;12.93;;;8.60;99.90;;;;;;4993770;28;20120;-77
2021/12/24 06:13:24;;;;;;;44.28;12.10;;;8.40;99.90;;;;;;5002822;28;20068;-75
2021/12/24 06:15:51;;;;;;;40.13;13.00;;;8.50;99.90;;;;;;4993757;28;20124;-75
2021/12/24 06:18:27;;;;;;;37.20;12.75;;;8.60;99.90;;;;;;5037869;28;20505;-76
2021/12/24 06:20:55;;;;;;;45.83;12.75;;;8.50;99.90;;;;;;5033095;28;20501;-80
2021/12/24 06:23:23;;;;;;;39.58;12.68;;;8.50;99.90;;;;;;5010792;28;20038;-77
2021/12/24 06:25:51;;;;;;;38.03;11.95;;;8.50;99.90;;;;;;5032064;28;20493;-77
2021/12/24 06:28:17;;;;;;;50.13;12.80;;;8.50;99.90;;;;;;5019100;28;20045;-77
2021/12/24 06:30:43;;;;;;;45.25;13.05;;;8.50;99.90;;;;;;5023774;28;20045;-77
2021/12/24 06:33:09;;;;;;;36.95;9.95;;;8.40;99.90;;;;;;5023489;28;20072;-77
2021/12/24 06:35:35;;;;;;;45.45;11.30;;;8.50;99.90;;;;;;5011510;28;20037;-76
2021/12/24 06:38:01;;;;;;;34.72;9.85;;;8.50;99.90;;;;;;5018254;28;20060;-77
2021/12/24 06:40:27;;;;;;;30.45;9.55;;;8.50;99.90;;;;;;4998857;28;20170;-75
2021/12/24 06:42:53;;;;;;;34.92;9.93;;;8.50;99.90;;;;;;4999173;28;20160;-75
2021/12/24 06:45:23;;;;;;;39.78;10.73;;;8.40;99.90;;;;;;5024736;28;20508;-77
2021/12/24 06:47:50;;;;;;;33.47;9.73;;;8.40;99.90;;;;;;5035375;28;20075;-77
2021/12/24 06:50:16;;;;;;;45.10;10.85;;;8.50;99.90;;;;;;5001535;28;20128;-77
2021/12/24 06:52:41;;;;;;;30.33;7.82;;;8.50;99.90;;;;;;5028418;28;20164;-76
2021/12/24 06:55:08;;;;;;;39.53;10.38;;;8.40;99.90;;;;;;5027718;28;20077;-77
2021/12/24 06:57:34;;;;;;;41.83;10.50;;;8.40;99.90;;;;;;5017643;28;20049;-76
2021/12/24 06:59:59;;;;;;;33.03;10.82;;;8.40;99.90;;;;;;4999668;28;20453;-77
2021/12/24 07:02:25;;;;;;;40.10;11.73;;;8.40;99.90;;;;;;5004359;28;20054;-77
2021/12/24 07:04:51;;;;;;;46.50;12.32;;;8.40;99.90;;;;;;5005410;28;20054;-77
2021/12/24 07:07:16;;;;;;;42.20;12.50;;;8.30;99.90;;;;;;5002420;28;20138;-76
2021/12/24 07:09:42;;;;;;;36.50;11.20;;;8.30;99.90;;;;;;5034264;28;20034;-77
2021/12/24 07:12:15;;;;;;;45.60;13.40;;;8.30;99.90;;;;;;5019611;28;20175;-77
2021/12/24 07:14:42;;;;;;;36.22;10.82;;;8.30;99.90;;;;;;5029109;28;20050;-76
2021/12/24 07:17:09;;;;;;;38.03;9.43;;;8.30;99.90;;;;;;5004744;28;20452;-75
2021/12/24 07:19:34;;;;;;;36.30;11.18;;;8.30;99.90;;;;;;5003415;28;20046;-76
2021/12/24 07:22:00;;;;;;;36.90;10.32;;;8.30;99.90;;;;;;5034523;28;20041;-76
2021/12/24 07:24:26;;;;;;;35.20;10.63;;;8.30;99.90;;;;;;5005596;28;20056;-76
2021/12/24 07:26:52;;;;;;;36.75;10.70;;;8.20;99.90;;;;;;5027804;28;20126;-77
2021/12/24 07:29:18;;;;;;;31.15;10.35;;;8.20;99.90;;;;;;5021736;28;20076;-77
2021/12/24 07:31:43;;;;;;;30.85;9.50;;;8.20;99.90;;;;;;5009725;28;20521;-78
2021/12/24 07:34:09;;;;;;;33.92;9.82;;;8.20;99.90;;;;;;5014574;28;20125;-76
2021/12/24 07:36:34;;;;;;;21.85;8.27;;;8.20;99.90;;;;;;5006673;28;20037;-76
2021/12/24 07:39:00;;;;;;;29.13;8.13;;;8.20;99.90;;;;;;5018461;28;20158;-78
2021/12/24 07:41:26;;;;;;;22.13;7.45;;;8.20;99.90;;;;;;5036112;28;20103;-75
2021/12/24 07:43:53;;;;;;;17.55;6.00;;;8.20;99.90;;;;;;5024032;28;20045;-77
2021/12/24 07:46:21;;;;;;;23.67;6.72;;;8.20;99.90;;;;;;5021269;28;20048;-78
2021/12/24 07:48:49;;;;;;;16.67;5.80;;;8.10;99.90;;;;;;5032832;28;20053;-77
2021/12/24 07:54:02;;;;;;;26.63;7.63;;;8.10;99.90;;;;;;5020606;28;20350;-80
2021/12/24 07:56:28;;;;;;;24.50;6.72;;;8.10;99.90;;;;;;5036150;28;20041;-79
2021/12/24 07:58:54;;;;;;;18.60;5.53;;;8.10;99.90;;;;;;5018853;28;20040;-77
2021/12/24 08:01:25;;;;;;;26.33;6.85;;;8.10;99.90;;;;;;5018621;28;20128;-79
2021/12/24 08:04:00;;;;;;;22.27;6.97;;;8.10;99.90;;;;;;5037786;28;20331;-79
2021/12/24 08:06:26;;;;;;;24.38;6.60;;;8.00;99.90;;;;;;5021925;28;20042;-77
2021/12/24 08:08:52;;;;;;;20.10;6.75;;;8.10;99.90;;;;;;5003002;28;20068;-75
2021/12/24 08:11:18;;;;;;;29.83;8.15;;;8.00;99.90;;;;;;5002883;28;20037;-77
2021/12/24 08:13:43;;;;;;;22.48;6.38;;;8.00;99.90;;;;;;4994033;28;20128;-78
2021/12/24 08:16:10;;;;;;;15.90;6.57;;;8.00;99.90;;;;;;5004443;28;20350;-76
2021/12/24 08:18:37;;;;;;;30.08;7.50;;;8.00;99.90;;;;;;4986403;28;20044;-77
2021/12/24 08:21:03;;;;;;;21.05;6.88;;;8.00;99.90;;;;;;5020876;28;20045;-80
2021/12/24 08:23:29;;;;;;;38.45;8.38;;;8.00;99.90;;;;;;5034398;28;20052;-75
2021/12/24 08:25:58;;;;;;;20.00;6.97;;;8.00;99.90;;;;;;5020300;28;20045;-79
2021/12/24 08:28:25;;;;;;;15.90;5.70;;;8.00;99.90;;;;;;5012257;28;20120;-76
2021/12/24 08:30:53;;;;;;;36.63;8.07;;;8.10;99.90;;;;;;4988483;28;20180;-76
2021/12/24 08:33:20;;;;;;;24.60;7.75;;;8.10;99.90;;;;;;5021545;28;20379;-75
2021/12/24 08:35:46;;;;;;;21.67;7.07;;;8.00;99.90;;;;;;5004892;28;20695;-76
2021/12/24 08:38:12;;;;;;;29.45;8.30;;;8.10;99.90;;;;;;5007085;28;20058;-75
2021/12/24 08:40:38;;;;;;;34.30;8.60;;;8.10;99.90;;;;;;5013438;28;20436;-74
2021/12/24 08:43:04;;;;;;;26.45;7.93;;;8.00;99.90;;;;;;5006232;28;20125;-74
2021/12/24 08:45:29;;;;;;;32.05;8.88;;;8.10;99.90;;;;;;4986358;28;20038;-74
2021/12/24 08:47:55;;;;;;;29.65;6.90;;;8.00;99.90;;;;;;5034655;28;20084;-74
2021/12/24 08:50:21;;;;;;;33.97;8.60;;;8.10;99.90;;;;;;4995467;28;20053;-75
2021/12/24 08:52:46;;;;;;;33.17;9.07;;;8.40;99.90;;;;;;4995798;28;20196;-75
2021/12/24 08:55:14;;;;;;;29.23;7.88;;;8.00;99.90;;;;;;5034748;28;20049;-73
2021/12/24 08:57:40;;;;;;;34.28;8.23;;;8.00;99.90;;;;;;4993340;28;20054;-74
2021/12/24 09:00:09;;;;;;;25.58;8.00;;;8.00;99.90;;;;;;5029177;28;20460;-76
2021/12/24 09:02:36;;;;;;;35.17;9.40;;;8.00;99.90;;;;;;5006308;28;20225;-77
2021/12/24 09:05:03;;;;;;;37.95;9.05;;;8.00;99.90;;;;;;4998313;28;20029;-76
2021/12/24 09:07:29;;;;;;;33.75;9.40;;;8.00;99.90;;;;;;5003648;28;20056;-76
2021/12/24 09:09:54;;;;;;;35.85;9.38;;;8.00;99.90;;;;;;5028609;28;20536;-75
2021/12/24 09:12:20;;;;;;;43.42;9.82;;;8.00;99.90;;;;;;4990104;28;20429;-74
2021/12/24 09:14:46;;;;;;;38.88;9.45;;;7.90;99.90;;;;;;5036463;28;20054;-78
2021/12/24 09:17:11;;;;;;;36.40;9.77;;;7.90;99.90;;;;;;5011514;28;20067;-74
2021/12/24 09:19:44;;;;;;;40.45;8.50;;;7.90;99.90;;;;;;5030723;28;20045;-76
2021/12/24 09:22:16;;;;;;;31.00;8.02;;;7.90;99.90;;;;;;5000943;28;20049;-75
2021/12/24 09:24:43;;;;;;;31.95;8.10;;;8.00;99.90;;;;;;5000659;28;20421;-76
2021/12/24 09:27:09;;;;;;;21.63;7.25;;;7.90;99.90;;;;;;5043023;28;20033;-76
2021/12/24 09:29:34;;;;;;;19.58;6.18;;;7.90;99.90;;;;;;5021133;28;20161;-75
2021/12/24 09:32:00;;;;;;;23.60;6.60;;;7.90;99.90;;;;;;5007518;28;20046;-76
2021/12/24 09:34:26;;;;;;;21.90;6.53;;;7.90;99.90;;;;;;5009217;28;20069;-76
2021/12/24 09:36:52;;;;;;;18.85;6.50;;;7.90;99.90;;;;;;5001763;28;20034;-77
2021/12/24 09:39:18;;;;;;;19.88;5.50;;;7.80;99.90;;;;;;5028142;28;20053;-79
2021/12/24 09:41:56;;;;;;;17.77;5.30;;;7.80;99.90;;;;;;5009115;28;20117;-81
2021/12/24 09:44:22;;;;;;;3.70;2.67;;;7.90;99.90;;;;;;5001739;28;20077;-76
2021/12/24 09:46:48;;;;;;;2.22;2.00;;;7.50;99.90;;;;;;5007387;28;20046;-75
2021/12/24 09:49:14;;;;;;;1.60;1.50;;;6.90;99.90;;;;;;5024927;28;20054;-75
2021/12/24 09:51:44;;;;;;;1.70;1.30;;;6.70;99.90;;;;;;5023770;28;20057;-74
2021/12/24 09:54:14;;;;;;;2.10;1.90;;;6.60;99.90;;;;;;5011263;28;20389;-73
2021/12/24 09:56:40;;;;;;;3.13;1.95;;;6.50;99.90;;;;;;5030525;28;20107;-78
2021/12/24 09:59:07;;;;;;;2.45;2.20;;;6.40;99.90;;;;;;5042622;28;20045;-74
2021/12/24 10:01:43;;;;;;;6.28;2.22;;;6.30;99.90;;;;;;5023090;28;20070;-76
2021/12/24 10:04:14;;;;;;;5.25;3.10;;;6.30;99.90;;;;;;4993838;28;20045;-79
2021/12/24 10:06:49;;;;;;;3.58;2.78;;;6.40;99.90;;;;;;5008439;28;20076;-75
2021/12/24 10:09:16;;;;;;;3.65;2.97;;;6.20;99.90;;;;;;5018925;28;20059;-80
2021/12/24 10:11:50;;;;;;;3.90;3.25;;;6.20;99.90;;;;;;5039161;28;20069;-81
2021/12/24 10:14:18;;;;;;;3.67;3.10;;;6.10;99.90;;;;;;5014225;28;20129;-79
2021/12/24 10:16:45;;;;;;;6.70;3.30;;;6.20;99.90;;;;;;5008584;28;20389;-79
2021/12/24 10:19:13;;;;;;;5.00;3.05;;;6.20;99.90;;;;;;5017789;28;20487;-80
2021/12/24 10:21:44;;;;;;;3.67;2.95;;;6.10;99.90;;;;;;5011251;28;20054;-78
2021/12/24 10:24:14;;;;;;;4.18;3.28;;;6.10;99.90;;;;;;5042794;28;20065;-79
2021/12/24 10:26:49;;;;;;;4.90;3.70;;;6.10;99.90;;;;;;5040485;28;20050;-77
2021/12/24 10:29:18;;;;;;;4.68;3.60;;;6.10;99.90;;;;;;5041461;28;20052;-79
2021/12/24 10:31:48;;;;;;;3.75;2.97;;;6.10;99.90;;;;;;5012066;28;20054;-77
2021/12/24 10:34:40;;;;;;;6.53;3.63;;;6.00;99.90;;;;;;5017332;28;20049;-77
2021/12/24 10:37:13;;;;;;;4.57;3.10;;;6.10;99.90;;;;;;5012201;28;20091;-79
2021/12/24 10:39:48;;;;;;;5.55;3.60;;;6.00;99.90;;;;;;5054782;28;20042;-78
2021/12/24 10:42:31;;;;;;;4.78;3.20;;;6.00;99.90;;;;;;5038781;28;20108;-76
2021/12/24 10:44:59;;;;;;;4.07;2.90;;;6.00;99.90;;;;;;5017631;28;20085;-77
2021/12/24 10:47:32;;;;;;;3.53;2.88;;;6.00;99.90;;;;;;5037660;28;20057;-76
2021/12/24 10:55:26;;;;;;;4.15;2.83;;;5.90;99.90;;;;;;5043236;28;20044;-75
2021/12/24 10:57:54;;;;;;;3.50;3.03;;;5.90;99.90;;;;;;5005833;28;20094;-76
2021/12/24 11:00:29;;;;;;;4.65;2.88;;;5.80;99.90;;;;;;5058980;28;20041;-77
2021/12/24 11:02:58;;;;;;;4.25;2.40;;;5.80;99.90;;;;;;5026982;28;20053;-78
2021/12/24 11:05:37;;;;;;;3.55;2.55;;;5.80;99.90;;;;;;5055694;28;20689;-79
2021/12/24 11:08:07;;;;;;;3.42;2.65;;;5.80;99.90;;;;;;5015697;28;20057;-78
2021/12/24 11:10:39;;;;;;;3.38;2.70;;;5.80;99.90;;;;;;4995773;28;20057;-78
2021/12/24 11:13:12;;;;;;;4.13;2.42;;;5.70;99.90;;;;;;5022567;28;20046;-76
2021/12/24 11:15:42;;;;;;;3.70;2.88;;;5.70;99.90;;;;;;5008122;28;20069;-79
2021/12/24 11:18:24;;;;;;;3.22;2.70;;;5.70;99.90;;;;;;5031741;28;20138;-76
2021/12/24 11:20:58;;;;;;;3.15;2.50;;;5.70;99.90;;;;;;5002218;28;20057;-77
2021/12/24 11:23:26;;;;;;;3.50;2.88;;;5.70;99.90;;;;;;5020103;28;20115;-78
2021/12/24 11:25:55;;;;;;;3.85;2.80;;;5.80;99.90;;;;;;5023397;28;20045;-78
2021/12/24 11:28:26;;;;;;;4.43;3.03;;;5.70;99.90;;;;;;5010182;28;20132;-78
2021/12/24 11:30:55;;;;;;;4.80;2.63;;;5.60;99.90;;;;;;5001547;28;20442;-77
2021/12/24 11:33:27;;;;;;;3.67;2.72;;;5.60;99.90;;;;;;5017029;28;20057;-77
2021/12/24 11:35:55;;;;;;;3.67;2.60;;;5.70;99.90;;;;;;5024322;28;20128;-79
2021/12/24 11:38:23;;;;;;;3.38;2.65;;;5.70;99.90;;;;;;5009570;28;20073;-77
2021/12/24 11:40:51;;;;;;;2.97;2.60;;;5.60;99.90;;;;;;5023697;28;20038;-79
2021/12/24 11:43:18;;;;;;;3.58;2.70;;;5.70;99.90;;;;;;5026425;28;20076;-76
2021/12/24 11:45:44;;;;;;;5.00;3.40;;;5.70;99.90;;;;;;5005398;28;20049;-78
2021/12/24 11:48:10;;;;;;;3.72;2.88;;;5.70;99.90;;;;;;5002444;28;20132;-80
2021/12/24 11:50:36;;;;;;;4.13;2.47;;;6.20;99.90;;;;;;5021425;28;20130;-78
2021/12/24 11:53:14;;;;;;;2.70;2.42;;;5.80;99.90;;;;;;5026290;28;20056;-80
2021/12/24 11:55:52;;;;;;;3.17;2.78;;;5.60;99.90;;;;;;5007856;28;20099;-80
2021/12/24 12:01:55;;;;;;;7.68;3.10;;;5.60;99.90;;;;;;5019807;28;20119;-82
2021/12/24 12:04:24;;;;;;;;;;;5.60;99.90;;;;;;5022248;28;20619;-78
2021/12/24 12:06:51;;;;;;;4.75;3.17;;;5.80;99.90;;;;;;5002601;28;19957;-81
2021/12/24 12:09:16;;;;;;;5.13;2.95;;;6.30;99.90;;;;;;5005955;28;20105;-78
2021/12/24 12:11:56;;;;;;;3.53;2.88;;;5.50;99.90;;;;;;5034997;28;20542;-80
2021/12/24 12:14:25;;;;;;;3.97;3.10;;;6.10;99.90;;;;;;5003188;28;20520;-79
2021/12/24 12:16:53;;;;;;;3.47;2.88;;;5.60;99.90;;;;;;5014358;28;20045;-78
2021/12/24 12:19:37;;;;;;;3.83;3.17;;;5.60;99.90;;;;;;5039128;28;20528;-77
2021/12/24 12:22:26;;;;;;;3.35;2.95;;;5.60;99.90;;;;;;5004483;28;20053;-78
2021/12/24 12:24:58;;;;;;;5.60;3.70;;;5.60;99.90;;;;;;5007413;28;20480;-80
2021/12/24 12:27:54;;;;;;;5.95;3.83;;;5.70;99.90;;;;;;5005595;28;20132;-79
2021/12/24 12:30:21;;;;;;;5.32;3.70;;;5.70;99.90;;;;;;5033481;28;20584;-79
2021/12/24 12:32:49;;;;;;;5.40;3.65;;;5.80;99.90;;;;;;5020718;28;20049;-81
2021/12/24 12:35:15;;;;;;;4.60;3.30;;;5.90;99.90;;;;;;5014641;28;20041;-76
2021/12/24 12:37:53;;;;;;;5.82;3.33;;;5.80;99.90;;;;;;5035987;28;20150;-76
2021/12/24 12:40:21;;;;;;;5.43;3.63;;;5.80;99.90;;;;;;4998917;28;20057;-78
2021/12/24 12:42:54;;;;;;;5.10;3.47;;;5.80;99.90;;;;;;4999255;28;20080;-77
2021/12/24 12:45:42;;;;;;;4.22;3.47;;;6.10;99.90;;;;;;5022248;28;20045;-77
2021/12/24 12:48:16;;;;;;;5.53;4.03;;;5.90;99.90;;;;;;5007943;28;20099;-79
2021/12/24 12:50:52;;;;;;;8.57;4.25;;;5.90;99.90;;;;;;5013609;28;20057;-78
2021/12/24 12:53:31;;;;;;;5.20;4.20;;;5.90;99.90;;;;;;5001382;28;20057;-79
2021/12/24 12:56:27;;;;;;;5.70;4.30;;;5.90;99.90;;;;;;5013781;28;20652;-77
2021/12/24 12:59:05;;;;;;;8.80;4.80;;;5.90;99.90;;;;;;5013140;28;20053;-79
2021/12/24 13:01:33;;;;;;;7.32;4.90;;;6.00;99.90;;;;;;4995535;28;20061;-77
2021/12/24 13:04:00;;;;;;;6.47;4.47;;;6.00;99.90;;;;;;5027110;28;20311;-77
2021/12/24 13:06:35;;;;;;;7.88;4.32;;;6.00;99.90;;;;;;5027033;28;20049;-77
2021/12/24 13:09:09;;;;;;;8.30;4.45;;;6.00;99.90;;;;;;5015556;28;20136;-78
2021/12/24 13:11:45;;;;;;;5.88;4.68;;;6.10;99.90;;;;;;5030065;28;20144;-78
2021/12/24 13:14:12;;;;;;;5.78;4.07;;;6.20;99.90;;;;;;5010464;28;20661;-79
2021/12/24 13:16:46;;;;;;;8.85;4.45;;;6.10;99.90;;;;;;5027451;28;20061;-78
2021/12/24 13:19:55;;;;;;;6.13;4.90;;;6.10;99.90;;;;;;4999553;28;20061;-83
2021/12/24 13:25:00;;;;;;;7.28;5.32;;;6.20;99.90;;;;;;5009689;28;20461;-76
2021/12/24 13:27:29;;;;;;;8.45;4.95;;;6.30;99.90;;;;;;4996676;28;20050;-78
2021/12/24 13:30:14;;;;;;;7.13;4.63;;;6.30;99.90;;;;;;5027185;28;20385;-77
2021/12/24 13:32:43;;;;;;;9.10;4.82;;;6.30;99.90;;;;;;5033750;28;20058;-77
2021/12/24 13:35:10;;;;;;;8.10;5.00;;;6.30;99.90;;;;;;5013641;28;20487;-76
2021/12/24 13:37:36;;;;;;;6.47;3.97;;;6.40;99.90;;;;;;5008140;28;20117;-77
2021/12/24 13:40:08;;;;;;;8.43;4.82;;;6.80;99.90;;;;;;4982645;28;20129;-77
2021/12/24 13:42:47;;;;;;;6.35;4.28;;;6.40;99.90;;;;;;4999758;28;20077;-77
2021/12/24 13:45:14;;;;;;;6.57;4.30;;;6.50;99.90;;;;;;5050113;28;20136;-78
2021/12/24 13:50:30;;;;;;;5.82;4.28;;;6.50;99.90;;;;;;5024280;28;20044;-77
2021/12/24 13:55:42;;;;;;;5.03;3.78;;;6.40;99.90;;;;;;5049492;28;20034;-75
2021/12/24 13:58:11;;;;;;;7.07;3.67;;;6.40;99.90;;;;;;5022060;28;20195;-75
2021/12/24 14:00:45;;;;;;;5.68;3.92;;;6.40;99.90;;;;;;5044193;28;20460;-78
2021/12/24 14:03:11;;;;;;;6.35;4.18;;;6.60;99.90;;;;;;5029680;28;20088;-78
2021/12/24 14:06:04;;;;;;;8.82;3.95;;;6.40;99.90;;;;;;5004488;28;20438;-76
2021/12/24 14:08:34;;;;;;;7.03;4.07;;;6.30;99.90;;;;;;5020049;28;20051;-76
2021/12/24 14:11:07;;;;;;;8.02;3.10;;;6.40;99.90;;;;;;4989102;28;20054;-77
2021/12/24 14:13:37;;;;;;;4.72;3.42;;;6.30;99.90;;;;;;5008843;28;20048;-79
2021/12/24 14:23:31;;;;;;;3.90;3.08;;;6.20;99.90;;;;;;5034842;28;20100;-76
2021/12/24 14:25:59;;;;;;;6.10;2.97;;;6.20;99.90;;;;;;5006526;28;20524;-76
2021/12/24 14:28:26;;;;;;;7.47;2.88;;;6.20;99.90;;;;;;5019452;28;20053;-75
2021/12/24 14:31:04;;;;;;;7.35;2.50;;;6.20;99.90;;;;;;5043322;28;20076;-76
2021/12/24 14:33:35;;;;;;;3.30;2.20;;;6.20;99.90;;;;;;5013492;28;20038;-77
2021/12/24 14:36:02;;;;;;;6.40;1.48;;;6.40;99.90;;;;;;5041624;28;20049;-78
2021/12/24 14:38:29;;;;;;;6.22;1.20;;;6.00;99.90;;;;;;5033138;28;20068;-77
2021/12/24 14:40:57;;;;;;;3.95;0.90;;;6.00;99.90;;;;;;5008877;28;20354;-75
2021/12/24 14:43:23;;;;;;;3.33;0.70;;;5.90;99.90;;;;;;5018056;28;20054;-76
2021/12/24 14:45:50;;;;;;;7.63;0.85;;;5.80;99.90;;;;;;4996421;28;20470;-76
2021/12/24 14:48:24;;;;;;;4.18;0.85;;;5.70;99.90;;;;;;5004201;28;20053;-76
2021/12/24 14:50:54;;;;;;;2.00;0.80;;;5.70;99.90;;;;;;5020636;28;20049;-76
2021/12/24 14:53:19;;;;;;;5.65;0.90;;;5.70;99.90;;;;;;5021667;28;20050;-76
2021/12/24 14:55:51;;;;;;;7.85;1.10;;;6.10;99.90;;;;;;5023749;28;20480;-77
2021/12/24 14:58:38;;;;;;;2.90;0.65;;;5.60;99.90;;;;;;5046334;28;20412;-77
2021/12/24 15:01:14;;;;;;;2.03;0.60;;;5.60;99.90;;;;;;5044796;28;20049;-77
2021/12/24 15:03:44;;;;;;;2.95;0.88;;;5.60;99.90;;;;;;5028332;28;20080;-77
2021/12/24 15:06:27;;;;;;;3.88;0.90;;;5.50;99.90;;;;;;5032011;28;20120;-77